Aviation Digital Data Service (ADDS)

Output produced by METARs form (0350 UTC 20 March 2019)
found at http://www.aviationweather.gov/metar/data/
 
METAR text: AGGH 200300Z 18005KT 9999 SCT018 FEW019CB BKN300 28/24 Q1007
Conditions at: AGGH (HONIARA/HENDERSO, SB) observed 0300 UTC 20 March 2019
Temperature: 28.0°C (82°F)
Dewpoint: 24.0°C (75°F) [RH = 79%]
Pressure (altimeter): 29.73 inches Hg (1007.0 mb)
Winds: from the S (180 degrees) at 6 MPH (5 knots; 2.6 m/s)
Visibility: 6 or more miles (10+ km)
Ceiling: 30000 feet AGL
Clouds: scattered clouds at 1800 feet AGL
few clouds at 1900 feet AGL
broken clouds at 30000 feet AGL
Weather: no significant weather observed at this time

METAR text: AGGH 200200Z 07009KT 9999 FEW019 FEW020CB SCT300 32/26 Q1008
Conditions at: AGGH (HONIARA/HENDERSO, SB) observed 0200 UTC 20 March 2019
Temperature: 32.0°C (90°F)
Dewpoint: 26.0°C (79°F) [RH = 71%]
Pressure (altimeter): 29.76 inches Hg (1008.0 mb)
Winds: from the ENE (70 degrees) at 10 MPH (9 knots; 4.6 m/s)
Visibility: 6 or more miles (10+ km)
Ceiling: at least 12,000 feet AGL
Clouds: few clouds at 1900 feet AGL
few clouds at 2000 feet AGL
scattered clouds at 30000 feet AGL
Weather: no significant weather observed at this time

METAR text: AGGH 200100Z 05008KT 9999 FEW020 FEW021CB SCT300 32/26 Q1009
Conditions at: AGGH (HONIARA/HENDERSO, SB) observed 0100 UTC 20 March 2019
Temperature: 32.0°C (90°F)
Dewpoint: 26.0°C (79°F) [RH = 71%]
Pressure (altimeter): 29.79 inches Hg (1009.0 mb)
Winds: from the NE (50 degrees) at 9 MPH (8 knots; 4.1 m/s)
Visibility: 6 or more miles (10+ km)
Ceiling: at least 12,000 feet AGL
Clouds: few clouds at 2000 feet AGL
few clouds at 2100 feet AGL
scattered clouds at 30000 feet AGL
Weather: no significant weather observed at this time

METAR text: AGGH 200000Z 02003KT 9999 FEW020 FEW021CB BKN300 30/25 Q1009
Conditions at: AGGH (HONIARA/HENDERSO, SB) observed 0000 UTC 20 March 2019
Temperature: 30.0°C (86°F)
Dewpoint: 25.0°C (77°F) [RH = 75%]
Pressure (altimeter): 29.79 inches Hg (1009.0 mb)
Winds: from the NNE (20 degrees) at 3 MPH (3 knots; 1.5 m/s)
Visibility: 6 or more miles (10+ km)
Ceiling: 30000 feet AGL
Clouds: few clouds at 2000 feet AGL
few clouds at 2100 feet AGL
broken clouds at 30000 feet AGL
Weather: no significant weather observed at this time

METAR text: AGGH 192300Z METAR
Conditions at: AGGH (HONIARA/HENDERSO, SB) observed 2300 UTC 19 March 2019
Temperature: missing
Dewpoint: missing
Pressure (altimeter): missing
Winds: missing
Visibility: missing
Ceiling: unknown
Clouds: missing
Weather: no significant weather observed at this time

METAR text: AGGH 192200Z 23003KT 9999 FEW016 FEW017CB 29/25 Q1009
Conditions at: AGGH (HONIARA/HENDERSO, SB) observed 2200 UTC 19 March 2019
Temperature: 29.0°C (84°F)
Dewpoint: 25.0°C (77°F) [RH = 79%]
Pressure (altimeter): 29.79 inches Hg (1009.0 mb)
Winds: from the SW (230 degrees) at 3 MPH (3 knots; 1.5 m/s)
Visibility: 6 or more miles (10+ km)
Ceiling: at least 12,000 feet AGL
Clouds: few clouds at 1600 feet AGL
few clouds at 1700 feet AGL
Weather: no significant weather observed at this time

METAR text: AGGH 192100Z 20004KT 9999 FEW016 FEW016CB 26/23 Q1009
Conditions at: AGGH (HONIARA/HENDERSO, SB) observed 2100 UTC 19 March 2019
Temperature: 26.0°C (79°F)
Dewpoint: 23.0°C (73°F) [RH = 84%]
Pressure (altimeter): 29.79 inches Hg (1009.0 mb)
Winds: from the SSW (200 degrees) at 5 MPH (4 knots; 2.1 m/s)
Visibility: 6 or more miles (10+ km)
Ceiling: at least 12,000 feet AGL
Clouds: few clouds at 1600 feet AGL
few clouds at 1600 feet AGL
Weather: no significant weather observed at this time

METAR text: AGGH 192000Z 00000KT 9999 FEW015 BKN100 23/22 Q1008
Conditions at: AGGH (HONIARA/HENDERSO, SB) observed 2000 UTC 19 March 2019
Temperature: 23.0°C (73°F)
Dewpoint: 22.0°C (72°F) [RH = 94%]
Pressure (altimeter): 29.76 inches Hg (1008.0 mb)
Winds: calm
Visibility: 6 or more miles (10+ km)
Ceiling: 10000 feet AGL
Clouds: few clouds at 1500 feet AGL
broken clouds at 10000 feet AGL
Weather: no significant weather observed at this time

METAR text: AGGH 191900Z 00000KT 9999 FEW015 BKN300 23/22 Q1008
Conditions at: AGGH (HONIARA/HENDERSO, SB) observed 1900 UTC 19 March 2019
Temperature: 23.0°C (73°F)
Dewpoint: 22.0°C (72°F) [RH = 94%]
Pressure (altimeter): 29.76 inches Hg (1008.0 mb)
Winds: calm
Visibility: 6 or more miles (10+ km)
Ceiling: 30000 feet AGL
Clouds: few clouds at 1500 feet AGL
broken clouds at 30000 feet AGL
Weather: no significant weather observed at this time

METAR text: AGGH 191800Z 00000KT 9999 FEW015 BKN300 23/22 Q1007
Conditions at: AGGH (HONIARA/HENDERSO, SB) observed 1800 UTC 19 March 2019
Temperature: 23.0°C (73°F)
Dewpoint: 22.0°C (72°F) [RH = 94%]
Pressure (altimeter): 29.73 inches Hg (1007.0 mb)
Winds: calm
Visibility: 6 or more miles (10+ km)
Ceiling: 30000 feet AGL
Clouds: few clouds at 1500 feet AGL
broken clouds at 30000 feet AGL
Weather: no significant weather observed at this time

METAR text: AGGH 191700Z 00000KT 9999 FEW015 SCT100 23/22 Q1007
Conditions at: AGGH (HONIARA/HENDERSO, SB) observed 1700 UTC 19 March 2019
Temperature: 23.0°C (73°F)
Dewpoint: 22.0°C (72°F) [RH = 94%]
Pressure (altimeter): 29.73 inches Hg (1007.0 mb)
Winds: calm
Visibility: 6 or more miles (10+ km)
Ceiling: at least 12,000 feet AGL
Clouds: few clouds at 1500 feet AGL
scattered clouds at 10000 feet AGL
Weather: no significant weather observed at this time

METAR text: AGGH 191600Z 20002KT 9999 FEW015 SCT100 23/22 Q1007
Conditions at: AGGH (HONIARA/HENDERSO, SB) observed 1600 UTC 19 March 2019
Temperature: 23.0°C (73°F)
Dewpoint: 22.0°C (72°F) [RH = 94%]
Pressure (altimeter): 29.73 inches Hg (1007.0 mb)
Winds: from the SSW (200 degrees) at 2 MPH (2 knots; 1.0 m/s)
Visibility: 6 or more miles (10+ km)
Ceiling: at least 12,000 feet AGL
Clouds: few clouds at 1500 feet AGL
scattered clouds at 10000 feet AGL
Weather: no significant weather observed at this time

METAR text: AGGH 191500Z 23004KT 9999 FEW015 BKN100 23/22 Q1007
Conditions at: AGGH (HONIARA/HENDERSO, SB) observed 1500 UTC 19 March 2019
Temperature: 23.0°C (73°F)
Dewpoint: 22.0°C (72°F) [RH = 94%]
Pressure (altimeter): 29.73 inches Hg (1007.0 mb)
Winds: from the SW (230 degrees) at 5 MPH (4 knots; 2.1 m/s)
Visibility: 6 or more miles (10+ km)
Ceiling: 10000 feet AGL
Clouds: few clouds at 1500 feet AGL
broken clouds at 10000 feet AGL
Weather: no significant weather observed at this time

METAR text: AGGH 191400Z 00000KT 9999 FEW015 SCT030 BKN100 23/23 Q1008
Conditions at: AGGH (HONIARA/HENDERSO, SB) observed 1400 UTC 19 March 2019
Temperature: 23.0°C (73°F)
Dewpoint: 23.0°C (73°F) [RH = 100%]
Pressure (altimeter): 29.76 inches Hg (1008.0 mb)
Winds: calm
Visibility: 6 or more miles (10+ km)
Ceiling: 10000 feet AGL
Clouds: few clouds at 1500 feet AGL
scattered clouds at 3000 feet AGL
broken clouds at 10000 feet AGL
Weather: no significant weather observed at this time

METAR text: AGGH 191300Z 00000KT 9999 FEW015 SCT030 BKN100 23/23 Q1009
Conditions at: AGGH (HONIARA/HENDERSO, SB) observed 1300 UTC 19 March 2019
Temperature: 23.0°C (73°F)
Dewpoint: 23.0°C (73°F) [RH = 100%]
Pressure (altimeter): 29.79 inches Hg (1009.0 mb)
Winds: calm
Visibility: 6 or more miles (10+ km)
Ceiling: 10000 feet AGL
Clouds: few clouds at 1500 feet AGL
scattered clouds at 3000 feet AGL
broken clouds at 10000 feet AGL
Weather: no significant weather observed at this time

METAR text: AGGH 191200Z 00000KT 9999 FEW015 SCT030 BKN100 24/23 Q1010
Conditions at: AGGH (HONIARA/HENDERSO, SB) observed 1200 UTC 19 March 2019
Temperature: 24.0°C (75°F)
Dewpoint: 23.0°C (73°F) [RH = 94%]
Pressure (altimeter): 29.82 inches Hg (1010.0 mb)
Winds: calm
Visibility: 6 or more miles (10+ km)
Ceiling: 10000 feet AGL
Clouds: few clouds at 1500 feet AGL
scattered clouds at 3000 feet AGL
broken clouds at 10000 feet AGL
Weather: no significant weather observed at this time

METAR text: AGGH 191100Z 14003KT 9999 FEW015 SCT030 BKN100 24/23 Q1010
Conditions at: AGGH (HONIARA/HENDERSO, SB) observed 1100 UTC 19 March 2019
Temperature: 24.0°C (75°F)
Dewpoint: 23.0°C (73°F) [RH = 94%]
Pressure (altimeter): 29.82 inches Hg (1010.0 mb)
Winds: from the SE (140 degrees) at 3 MPH (3 knots; 1.5 m/s)
Visibility: 6 or more miles (10+ km)
Ceiling: 10000 feet AGL
Clouds: few clouds at 1500 feet AGL
scattered clouds at 3000 feet AGL
broken clouds at 10000 feet AGL
Weather: no significant weather observed at this time

METAR text: AGGH 191000Z 16006KT 9999 FEW015 SCT030 BKN100 24/23 Q1009
Conditions at: AGGH (HONIARA/HENDERSO, SB) observed 1000 UTC 19 March 2019
Temperature: 24.0°C (75°F)
Dewpoint: 23.0°C (73°F) [RH = 94%]
Pressure (altimeter): 29.79 inches Hg (1009.0 mb)
Winds: from the SSE (160 degrees) at 7 MPH (6 knots; 3.1 m/s)
Visibility: 6 or more miles (10+ km)
Ceiling: 10000 feet AGL
Clouds: few clouds at 1500 feet AGL
scattered clouds at 3000 feet AGL
broken clouds at 10000 feet AGL
Weather: no significant weather observed at this time

METAR text: AGGH 190900Z 16004KT 9999 -DZ FEW004 SCT015 BKN027 24/23 Q1009
Conditions at: AGGH (HONIARA/HENDERSO, SB) observed 0900 UTC 19 March 2019
Temperature: 24.0°C (75°F)
Dewpoint: 23.0°C (73°F) [RH = 94%]
Pressure (altimeter): 29.79 inches Hg (1009.0 mb)
Winds: from the SSE (160 degrees) at 5 MPH (4 knots; 2.1 m/s)
Visibility: 6 or more miles (10+ km)
Ceiling: 2700 feet AGL
Clouds: few clouds at 400 feet AGL
scattered clouds at 1500 feet AGL
broken clouds at 2700 feet AGL
Weather: -DZ  (light drizzle)

METAR text: AGGH 190800Z 20004KT 6000M -SH SCT004 SCT015 OVC027 24/24 Q1009
Conditions at: AGGH (HONIARA/HENDERSO, SB) observed 0800 UTC 19 March 2019
Temperature: 24.0°C (75°F)
Dewpoint: 24.0°C (75°F) [RH = 100%]
Pressure (altimeter): 29.79 inches Hg (1009.0 mb)
Winds: from the SSW (200 degrees) at 5 MPH (4 knots; 2.1 m/s)
Visibility: 4 miles ( 6 km)
Ceiling: 2700 feet AGL
Clouds: scattered clouds at 400 feet AGL
scattered clouds at 1500 feet AGL
overcast cloud deck at 2700 feet AGL
Weather: -SH  (unknown weather)

METAR text: AGGH 190730Z 20007KT 7000M -SH SCT004 SCT015 OVC027 24/24 Q1009
Conditions at: AGGH (HONIARA/HENDERSO, SB) observed 0730 UTC 19 March 2019
Temperature: 24.0°C (75°F)
Dewpoint: 24.0°C (75°F) [RH = 100%]
Pressure (altimeter): 29.79 inches Hg (1009.0 mb)
Winds: from the SSW (200 degrees) at 8 MPH (7 knots; 3.6 m/s)
Visibility: 4 miles ( 7 km)
Ceiling: 2700 feet AGL
Clouds: scattered clouds at 400 feet AGL
scattered clouds at 1500 feet AGL
overcast cloud deck at 2700 feet AGL
Weather: -SH  (unknown weather)

METAR text: AGGH 190700Z SPECI
Conditions at: AGGH (HONIARA/HENDERSO, SB) observed 0700 UTC 19 March 2019
Temperature: missing
Dewpoint: missing
Pressure (altimeter): missing
Winds: missing
Visibility: missing
Ceiling: unknown
Clouds: missing
Weather: PE  (moderate ice pellets)

METAR text: AGGH 190640Z 29006KT 3000M RASH SCT004 BKN015 FEW015CB 24/24 Q1009
Conditions at: AGGH (HONIARA/HENDERSO, SB) observed 0640 UTC 19 March 2019
Temperature: 24.0°C (75°F)
Dewpoint: 24.0°C (75°F) [RH = 100%]
Pressure (altimeter): 29.79 inches Hg (1009.0 mb)
Winds: from the WNW (290 degrees) at 7 MPH (6 knots; 3.1 m/s)
Visibility: 1.86 miles (2.99 km)
Ceiling: 1500 feet AGL
Clouds: scattered clouds at 400 feet AGL
broken clouds at 1500 feet AGL
few clouds at 1500 feet AGL
Weather: SH RA  (showers, moderate rain)

METAR text: AGGH 190630Z 09003KT 2000M RASH SCT004 BKN015 FEW015CB 24/24 Q1009
Conditions at: AGGH (HONIARA/HENDERSO, SB) observed 0630 UTC 19 March 2019
Temperature: 24.0°C (75°F)
Dewpoint: 24.0°C (75°F) [RH = 100%]
Pressure (altimeter): 29.79 inches Hg (1009.0 mb)
Winds: from the E (90 degrees) at 3 MPH (3 knots; 1.5 m/s)
Visibility: 1.24 miles (2.00 km)
Ceiling: 1500 feet AGL
Clouds: scattered clouds at 400 feet AGL
broken clouds at 1500 feet AGL
few clouds at 1500 feet AGL
Weather: SH RA  (showers, moderate rain)

METAR text: AGGH 190620Z 20006KT 50M +RASH SCT004 OVC015 FEW015CB 24/24 Q1009
Conditions at: AGGH (HONIARA/HENDERSO, SB) observed 0620 UTC 19 March 2019
Temperature: 24.0°C (75°F)
Dewpoint: 24.0°C (75°F) [RH = 100%]
Pressure (altimeter): 29.79 inches Hg (1009.0 mb)
Winds: from the SSW (200 degrees) at 7 MPH (6 knots; 3.1 m/s)
Visibility: missing
Ceiling: 1500 feet AGL
Clouds: scattered clouds at 400 feet AGL
overcast cloud deck at 1500 feet AGL
few clouds at 1500 feet AGL
Weather: SH +RA  (showers, heavy rain)

METAR text: AGGH 190610Z 29009KT 50M +RASH SCT004 BKN015 FEW015CB 24/24 Q1009
Conditions at: AGGH (HONIARA/HENDERSO, SB) observed 0610 UTC 19 March 2019
Temperature: 24.0°C (75°F)
Dewpoint: 24.0°C (75°F) [RH = 100%]
Pressure (altimeter): 29.79 inches Hg (1009.0 mb)
Winds: from the WNW (290 degrees) at 10 MPH (9 knots; 4.6 m/s)
Visibility: missing
Ceiling: 1500 feet AGL
Clouds: scattered clouds at 400 feet AGL
broken clouds at 1500 feet AGL
few clouds at 1500 feet AGL
Weather: SH +RA  (showers, heavy rain)

METAR text: AGGH 190605Z 29006KT 50M +RASH SCT004 BKN015 FEW016CB 24/24 Q1009
Conditions at: AGGH (HONIARA/HENDERSO, SB) observed 0605 UTC 19 March 2019
Temperature: 24.0°C (75°F)
Dewpoint: 24.0°C (75°F) [RH = 100%]
Pressure (altimeter): 29.79 inches Hg (1009.0 mb)
Winds: from the WNW (290 degrees) at 7 MPH (6 knots; 3.1 m/s)
Visibility: missing
Ceiling: 1500 feet AGL
Clouds: scattered clouds at 400 feet AGL
broken clouds at 1500 feet AGL
few clouds at 1600 feet AGL
Weather: SH +RA  (showers, heavy rain)

METAR text: AGGH 190600Z 02006KT 300M +RASH SCT004 BKN015 FEW016CB 24/24 Q1009
Conditions at: AGGH (HONIARA/HENDERSO, SB) observed 0600 UTC 19 March 2019
Temperature: 24.0°C (75°F)
Dewpoint: 24.0°C (75°F) [RH = 100%]
Pressure (altimeter): 29.79 inches Hg (1009.0 mb)
Winds: from the NNE (20 degrees) at 7 MPH (6 knots; 3.1 m/s)
Visibility: missing
Ceiling: 1500 feet AGL
Clouds: scattered clouds at 400 feet AGL
broken clouds at 1500 feet AGL
few clouds at 1600 feet AGL
Weather: SH +RA  (showers, heavy rain)

METAR text: AGGH 190540Z 25006KT 500M +RASH SCT005 BKN016 FEW016CB 24/24 Q1008
Conditions at: AGGH (HONIARA/HENDERSO, SB) observed 0540 UTC 19 March 2019
Temperature: 24.0°C (75°F)
Dewpoint: 24.0°C (75°F) [RH = 100%]
Pressure (altimeter): 29.76 inches Hg (1008.0 mb)
Winds: from the WSW (250 degrees) at 7 MPH (6 knots; 3.1 m/s)
Visibility: missing
Ceiling: 1600 feet AGL
Clouds: scattered clouds at 500 feet AGL
broken clouds at 1600 feet AGL
few clouds at 1600 feet AGL
Weather: SH +RA  (showers, heavy rain)

METAR text: AGGH 190530Z 25008KT 1000M +RASH SCT005 BKN016 FEW016CB 25/24 Q1008
Conditions at: AGGH (HONIARA/HENDERSO, SB) observed 0530 UTC 19 March 2019
Temperature: 25.0°C (77°F)
Dewpoint: 24.0°C (75°F) [RH = 94%]
Pressure (altimeter): 29.76 inches Hg (1008.0 mb)
Winds: from the WSW (250 degrees) at 9 MPH (8 knots; 4.1 m/s)
Visibility: 0.62 miles (1.00 km)
Ceiling: 1600 feet AGL
Clouds: scattered clouds at 500 feet AGL
broken clouds at 1600 feet AGL
few clouds at 1600 feet AGL
Weather: SH +RA  (showers, heavy rain)

METAR text: AGGH 190512Z 25010KT 3000 RASH SCT005 BKN016 FEW017CB 25/25 Q1008
Conditions at: AGGH (HONIARA/HENDERSO, SB) observed 0512 UTC 19 March 2019
Temperature: 25.0°C (77°F)
Dewpoint: 25.0°C (77°F) [RH = 100%]
Pressure (altimeter): 29.76 inches Hg (1008.0 mb)
Winds: from the WSW (250 degrees) at 12 MPH (10 knots; 5.1 m/s)
Visibility: 1.86 miles (2.99 km)
Ceiling: 1600 feet AGL
Clouds: scattered clouds at 500 feet AGL
broken clouds at 1600 feet AGL
few clouds at 1700 feet AGL
Weather: SH RA  (showers, moderate rain)

METAR text: AGGH 190500Z 27007KT 9999 SCT005 BKN016 FEW017CB 27/25 Q1008
Conditions at: AGGH (HONIARA/HENDERSO, SB) observed 0500 UTC 19 March 2019
Temperature: 27.0°C (81°F)
Dewpoint: 25.0°C (77°F) [RH = 89%]
Pressure (altimeter): 29.76 inches Hg (1008.0 mb)
Winds: from the W (270 degrees) at 8 MPH (7 knots; 3.6 m/s)
Visibility: 6 or more miles (10+ km)
Ceiling: 1600 feet AGL
Clouds: scattered clouds at 500 feet AGL
broken clouds at 1600 feet AGL
few clouds at 1700 feet AGL
Weather: no significant weather observed at this time

METAR text: AGGH 190400Z 34014KT 9999 BKN017 FEW019CB 26/25 Q1007
Conditions at: AGGH (HONIARA/HENDERSO, SB) observed 0400 UTC 19 March 2019
Temperature: 26.0°C (79°F)
Dewpoint: 25.0°C (77°F) [RH = 94%]
Pressure (altimeter): 29.73 inches Hg (1007.0 mb)
Winds: from the NNW (340 degrees) at 16 MPH (14 knots; 7.2 m/s)
Visibility: 6 or more miles (10+ km)
Ceiling: 1700 feet AGL
Clouds: broken clouds at 1700 feet AGL
few clouds at 1900 feet AGL
Weather: no significant weather observed at this time

METAR text: AGGH 190340Z 02014KT 5000M -SHRA BKN018 FEW019CB 27/25 Q1007
Conditions at: AGGH (HONIARA/HENDERSO, SB) observed 0340 UTC 19 March 2019
Temperature: 27.0°C (81°F)
Dewpoint: 25.0°C (77°F) [RH = 89%]
Pressure (altimeter): 29.73 inches Hg (1007.0 mb)
Winds: from the NNE (20 degrees) at 16 MPH (14 knots; 7.2 m/s)
Visibility: 3 miles ( 5 km)
Ceiling: 1800 feet AGL
Clouds: broken clouds at 1800 feet AGL
few clouds at 1900 feet AGL
Weather: -SHRA  (light rain showers)

METAR text: AGGH 190300Z 07013KT 9999 SCT019 FEW020CB 30/26 Q1006
Conditions at: AGGH (HONIARA/HENDERSO, SB) observed 0300 UTC 19 March 2019
Temperature: 30.0°C (86°F)
Dewpoint: 26.0°C (79°F) [RH = 79%]
Pressure (altimeter): 29.70 inches Hg (1006.0 mb)
Winds: from the ENE (70 degrees) at 15 MPH (13 knots; 6.7 m/s)
Visibility: 6 or more miles (10+ km)
Ceiling: at least 12,000 feet AGL
Clouds: scattered clouds at 1900 feet AGL
few clouds at 2000 feet AGL
Weather: no significant weather observed at this time

METAR text: AGGH 190200Z 05009KT 9999 SCT019TCU FEW020CB BKN120 32/26 Q1007
Conditions at: AGGH (HONIARA/HENDERSO, SB) observed 0200 UTC 19 March 2019
Temperature: 32.0°C (90°F)
Dewpoint: 26.0°C (79°F) [RH = 71%]
Pressure (altimeter): 29.73 inches Hg (1007.0 mb)
Winds: from the NE (50 degrees) at 10 MPH (9 knots; 4.6 m/s)
Visibility: 6 or more miles (10+ km)
Ceiling: 12000 feet AGL
Clouds: scattered clouds at 1900 feet AGL
few clouds at 2000 feet AGL
broken clouds at 12000 feet AGL
Weather: no significant weather observed at this time

METAR text: AGGH 190100Z 02010KT 9999 SCT020TCU FEW021CB BKN120 33/26 Q1008
Conditions at: AGGH (HONIARA/HENDERSO, SB) observed 0100 UTC 19 March 2019
Temperature: 33.0°C (91°F)
Dewpoint: 26.0°C (79°F) [RH = 67%]
Pressure (altimeter): 29.76 inches Hg (1008.0 mb)
Winds: from the NNE (20 degrees) at 12 MPH (10 knots; 5.1 m/s)
Visibility: 6 or more miles (10+ km)
Ceiling: 12000 feet AGL
Clouds: scattered clouds at 2000 feet AGL
few clouds at 2100 feet AGL
broken clouds at 12000 feet AGL
Weather: no significant weather observed at this time

METAR text: AGGH 190000Z 34007KT 9999 SCT020 FEW021CB 31/25 Q1009
Conditions at: AGGH (HONIARA/HENDERSO, SB) observed 0000 UTC 19 March 2019
Temperature: 31.0°C (88°F)
Dewpoint: 25.0°C (77°F) [RH = 71%]
Pressure (altimeter): 29.79 inches Hg (1009.0 mb)
Winds: from the NNW (340 degrees) at 8 MPH (7 knots; 3.6 m/s)
Visibility: 6 or more miles (10+ km)
Ceiling: at least 12,000 feet AGL
Clouds: scattered clouds at 2000 feet AGL
few clouds at 2100 feet AGL
Weather: no significant weather observed at this time

METAR text: AGGH 182300Z 11008KT 9999 HZ FEW018 FEW019CB SCT300 32/26 Q1009
Conditions at: AGGH (HONIARA/HENDERSO, SB) observed 2300 UTC 18 March 2019
Temperature: 32.0°C (90°F)
Dewpoint: 26.0°C (79°F) [RH = 71%]
Pressure (altimeter): 29.79 inches Hg (1009.0 mb)
Winds: from the ESE (110 degrees) at 9 MPH (8 knots; 4.1 m/s)
Visibility: 6 or more miles (10+ km)
Ceiling: at least 12,000 feet AGL
Clouds: few clouds at 1800 feet AGL
few clouds at 1900 feet AGL
scattered clouds at 30000 feet AGL
Weather: HZ  (haze)

METAR text: AGGH 182200Z 16005KT 9999 HZ FEW016 FEW017CB SCT300 30/25 Q1009
Conditions at: AGGH (HONIARA/HENDERSO, SB) observed 2200 UTC 18 March 2019
Temperature: 30.0°C (86°F)
Dewpoint: 25.0°C (77°F) [RH = 75%]
Pressure (altimeter): 29.79 inches Hg (1009.0 mb)
Winds: from the SSE (160 degrees) at 6 MPH (5 knots; 2.6 m/s)
Visibility: 6 or more miles (10+ km)
Ceiling: at least 12,000 feet AGL
Clouds: few clouds at 1600 feet AGL
few clouds at 1700 feet AGL
scattered clouds at 30000 feet AGL
Weather: HZ  (haze)

METAR text: AGGH 182100Z 20003KT 9999 FEW016CB SCT300 26/24 Q1008
Conditions at: AGGH (HONIARA/HENDERSO, SB) observed 2100 UTC 18 March 2019
Temperature: 26.0°C (79°F)
Dewpoint: 24.0°C (75°F) [RH = 89%]
Pressure (altimeter): 29.76 inches Hg (1008.0 mb)
Winds: from the SSW (200 degrees) at 3 MPH (3 knots; 1.5 m/s)
Visibility: 6 or more miles (10+ km)
Ceiling: at least 12,000 feet AGL
Clouds: few clouds at 1600 feet AGL
scattered clouds at 30000 feet AGL
Weather: no significant weather observed at this time

METAR text: AGGH 182000Z 20002KT 9999 FEW014 24/24 Q1007
Conditions at: AGGH (HONIARA/HENDERSO, SB) observed 2000 UTC 18 March 2019
Temperature: 24.0°C (75°F)
Dewpoint: 24.0°C (75°F) [RH = 100%]
Pressure (altimeter): 29.73 inches Hg (1007.0 mb)
Winds: from the SSW (200 degrees) at 2 MPH (2 knots; 1.0 m/s)
Visibility: 6 or more miles (10+ km)
Ceiling: at least 12,000 feet AGL
Clouds: few clouds at 1400 feet AGL
Weather: no significant weather observed at this time

METAR text: AGGH 181900Z 18002KT 9999 FEW014 24/24 Q1007
Conditions at: AGGH (HONIARA/HENDERSO, SB) observed 1900 UTC 18 March 2019
Temperature: 24.0°C (75°F)
Dewpoint: 24.0°C (75°F) [RH = 100%]
Pressure (altimeter): 29.73 inches Hg (1007.0 mb)
Winds: from the S (180 degrees) at 2 MPH (2 knots; 1.0 m/s)
Visibility: 6 or more miles (10+ km)
Ceiling: at least 12,000 feet AGL
Clouds: few clouds at 1400 feet AGL
Weather: no significant weather observed at this time

METAR text: AGGH 181800Z 20003KT 9999 FEW014 24/24 Q1006
Conditions at: AGGH (HONIARA/HENDERSO, SB) observed 1800 UTC 18 March 2019
Temperature: 24.0°C (75°F)
Dewpoint: 24.0°C (75°F) [RH = 100%]
Pressure (altimeter): 29.70 inches Hg (1006.0 mb)
Winds: from the SSW (200 degrees) at 3 MPH (3 knots; 1.5 m/s)
Visibility: 6 or more miles (10+ km)
Ceiling: at least 12,000 feet AGL
Clouds: few clouds at 1400 feet AGL
Weather: no significant weather observed at this time

METAR text: AGGH 181700Z 16003KT 9999 FEW016CB SCT300 24/24 Q1006
Conditions at: AGGH (HONIARA/HENDERSO, SB) observed 1700 UTC 18 March 2019
Temperature: 24.0°C (75°F)
Dewpoint: 24.0°C (75°F) [RH = 100%]
Pressure (altimeter): 29.70 inches Hg (1006.0 mb)
Winds: from the SSE (160 degrees) at 3 MPH (3 knots; 1.5 m/s)
Visibility: 6 or more miles (10+ km)
Ceiling: at least 12,000 feet AGL
Clouds: few clouds at 1600 feet AGL
scattered clouds at 30000 feet AGL
Weather: no significant weather observed at this time

METAR text: AGGH 181600Z 16003KT 9999 FEW016CB SCT300 24/24 Q1006
Conditions at: AGGH (HONIARA/HENDERSO, SB) observed 1600 UTC 18 March 2019
Temperature: 24.0°C (75°F)
Dewpoint: 24.0°C (75°F) [RH = 100%]
Pressure (altimeter): 29.70 inches Hg (1006.0 mb)
Winds: from the SSE (160 degrees) at 3 MPH (3 knots; 1.5 m/s)
Visibility: 6 or more miles (10+ km)
Ceiling: at least 12,000 feet AGL
Clouds: few clouds at 1600 feet AGL
scattered clouds at 30000 feet AGL
Weather: no significant weather observed at this time

Forecast for: AGGH (HONIARA/HENDERSO, SB)
Text: TAF AGGH 192310Z 2000/2024 05012KT 9999 FEW018 SCT100
Forecast period: 0000 UTC 20 March 2019 to 0000 UTC 21 March 2019
Forecast type: FROM: standard forecast or significant change
Winds: from the NE (50 degrees) at 14 MPH (12 knots; 6.2 m/s)
Visibility: 6 or more miles 10+ km)
Ceiling: at least 12,000 feet AGL
Clouds: few clouds at 1800 feet AGL
scattered clouds at 10000 feet AGL
Weather: no significant weather forecast for this period
Text: PROB40 INTER 2000/2006 5000 TSSH BKN015 FEW016CB T 30 31 30 28 Q 1010 1008 1007 1009
Forecast period: 0000 to 0600 UTC 20 March 2019
Forecast type: TEMPORARY: The following changes expected for less than half the time period
Visibility: 3 miles (5 km)
Ceiling: 1500 feet AGL
Clouds: broken clouds at 1500 feet AGL
few clouds at 1600 feet AGL
Weather: SH TS  (showers, thunderstorm)